createdAt,value
2023-05-02T00:00:03.764Z,8.11
2023-05-02T00:01:03.754Z,8.39
2023-05-02T00:03:03.940Z,8.39
2023-05-02T00:04:03.793Z,8.28
2023-05-02T00:05:03.797Z,8.28
2023-05-02T00:07:03.771Z,8.39
2023-05-02T00:09:03.765Z,8.78
2023-05-02T00:11:03.753Z,8.5
2023-05-02T00:12:03.784Z,8.61
2023-05-02T00:13:03.777Z,8.5
2023-05-02T00:14:03.776Z,8.61
2023-05-02T00:16:03.765Z,8.28
2023-05-02T00:17:03.790Z,8.5
2023-05-02T00:18:03.786Z,8.39
2023-05-02T00:19:03.800Z,8.28
2023-05-02T00:20:03.828Z,8.39
2023-05-02T00:21:03.792Z,8.11
2023-05-02T00:22:03.786Z,7.78
2023-05-02T00:23:03.793Z,8.11
2023-05-02T00:24:03.769Z,7.94
2023-05-02T00:25:03.760Z,7.94
2023-05-02T00:26:03.773Z,7.94
2023-05-02T00:27:03.780Z,7.94
2023-05-02T00:28:03.756Z,7.94
2023-05-02T00:29:03.785Z,7.94
2023-05-02T00:31:03.832Z,8.11
2023-05-02T00:33:03.789Z,7.67
2023-05-02T00:35:03.762Z,8.11
2023-05-02T00:36:03.768Z,7.94
2023-05-02T00:37:03.785Z,7.94
2023-05-02T00:38:03.777Z,8.11
2023-05-02T00:39:03.789Z,8.11
2023-05-02T00:41:03.756Z,8.11
2023-05-02T00:42:03.776Z,7.94
2023-05-02T00:43:03.768Z,8.28
2023-05-02T00:44:03.790Z,7.94
2023-05-02T00:45:03.777Z,7.78
2023-05-02T00:46:03.798Z,7.94
2023-05-02T00:47:03.822Z,7.78
2023-05-02T00:48:03.787Z,8.11
2023-05-02T00:49:03.759Z,7.94
2023-05-02T00:50:03.774Z,7.94
2023-05-02T00:51:03.772Z,8.28
2023-05-02T00:52:03.776Z,8.11
2023-05-02T00:53:03.816Z,7.94
2023-05-02T00:54:03.777Z,8.28
2023-05-02T00:55:03.772Z,8.28
2023-05-02T00:56:03.796Z,7.78
2023-05-02T00:57:03.823Z,7.94
2023-05-02T00:59:03.779Z,7.94
2023-05-02T01:00:03.804Z,7.94
2023-05-02T01:02:03.944Z,7.78
2023-05-02T01:04:04.045Z,7.94
2023-05-02T01:05:03.798Z,8.11
2023-05-02T01:06:03.896Z,7.78
2023-05-02T01:07:03.766Z,7.67
2023-05-02T01:08:03.788Z,8.11
2023-05-02T01:09:03.799Z,7.94
2023-05-02T01:11:03.799Z,8.11
2023-05-02T01:13:03.795Z,8.11
2023-05-02T01:14:03.771Z,7.78
2023-05-02T01:15:03.801Z,8.11
2023-05-02T01:18:03.815Z,8.11
2023-05-02T01:19:03.781Z,7.94
2023-05-02T01:20:03.863Z,7.94
2023-05-02T01:21:03.785Z,8.11
2023-05-02T01:22:03.788Z,7.94
2023-05-02T01:23:03.792Z,8.11
2023-05-02T01:24:03.771Z,7.94
2023-05-02T01:25:03.861Z,7.94
2023-05-02T01:27:03.821Z,7.94
2023-05-02T01:28:03.795Z,7.94
2023-05-02T01:30:03.800Z,7.39
2023-05-02T01:31:03.801Z,7.78
2023-05-02T01:32:03.888Z,7.78
2023-05-02T01:33:03.799Z,7.67
2023-05-02T01:34:03.785Z,7.78
2023-05-02T01:35:03.819Z,7.67
2023-05-02T01:36:03.791Z,7.67
2023-05-02T01:38:03.774Z,7.94
2023-05-02T01:39:03.788Z,7.5
2023-05-02T01:40:03.792Z,7.78
2023-05-02T01:41:03.818Z,7.94
2023-05-02T01:43:03.796Z,7.67
2023-05-02T01:45:03.792Z,7.94
2023-05-02T01:46:03.784Z,7.94
2023-05-02T01:48:03.815Z,7.94
2023-05-02T01:49:03.801Z,7.94
2023-05-02T01:50:03.790Z,7.78
2023-05-02T01:51:03.788Z,7.78
2023-05-02T01:52:03.814Z,7.94
2023-05-02T01:53:03.790Z,8.11
2023-05-02T01:54:03.822Z,8.28
2023-05-02T01:56:03.795Z,7.94
2023-05-02T01:57:03.838Z,7.78
2023-05-02T01:58:03.792Z,7.94
2023-05-02T01:59:03.820Z,7.94
2023-05-02T02:01:04.970Z,7.94
2023-05-02T02:03:03.821Z,8.28
2023-05-02T02:04:03.894Z,8.28
2023-05-02T02:05:03.818Z,7.94
2023-05-02T02:06:03.927Z,7.94
2023-05-02T02:08:03.792Z,7.5
2023-05-02T02:09:03.801Z,7.94
2023-05-02T02:10:03.820Z,7.94
2023-05-02T02:11:03.812Z,7.94
2023-05-02T02:12:03.855Z,7.5
2023-05-02T02:13:03.825Z,7.94
2023-05-02T02:15:03.806Z,7.94
2023-05-02T02:17:03.882Z,7.94
2023-05-02T02:18:03.825Z,7.94
2023-05-02T02:20:03.799Z,7.78
2023-05-02T02:21:03.823Z,7.94
2023-05-02T02:22:03.799Z,7.78
2023-05-02T02:23:03.829Z,7.67
2023-05-02T02:25:03.824Z,7.94
2023-05-02T02:27:03.808Z,7.94
2023-05-02T02:29:03.832Z,7.94
2023-05-02T02:31:03.832Z,7.94
2023-05-02T02:32:03.805Z,7.94
2023-05-02T02:33:03.881Z,7.67
2023-05-02T02:34:03.864Z,7.94
2023-05-02T02:35:03.800Z,7.78
2023-05-02T02:36:03.819Z,7.94
2023-05-02T02:37:03.827Z,7.94
2023-05-02T02:39:03.803Z,7.94
2023-05-02T02:40:03.854Z,7.94
2023-05-02T02:41:03.807Z,8.11
2023-05-02T02:42:03.828Z,7.94
2023-05-02T02:43:03.826Z,8.11
2023-05-02T02:44:03.808Z,7.94
2023-05-02T02:45:03.836Z,7.94
2023-05-02T02:47:03.821Z,7.94
2023-05-02T02:48:03.868Z,7.78
2023-05-02T02:49:03.814Z,7.94
2023-05-02T02:50:03.824Z,7.78
2023-05-02T02:51:03.817Z,7.94
2023-05-02T02:52:03.821Z,7.94
2023-05-02T02:53:03.833Z,7.94
2023-05-02T02:54:09.956Z,8.11
2023-05-02T02:55:03.821Z,7.94
2023-05-02T02:56:03.840Z,7.94
2023-05-02T02:58:03.825Z,7.94
2023-05-02T03:00:03.828Z,7.94
2023-05-02T03:01:03.836Z,7.94
2023-05-02T03:03:03.901Z,7.94
2023-05-02T03:04:03.833Z,7.78
2023-05-02T03:05:03.840Z,7.78
2023-05-02T03:07:03.817Z,8.28
2023-05-02T03:08:03.827Z,7.94
2023-05-02T03:09:03.824Z,8.28
2023-05-02T03:11:03.854Z,7.94
2023-05-02T03:12:03.830Z,7.94
2023-05-02T03:13:03.820Z,7.94
2023-05-02T03:15:03.834Z,7.94
2023-05-02T03:16:03.851Z,7.94
2023-05-02T03:17:03.970Z,7.78
2023-05-02T03:19:03.823Z,7.94
2023-05-02T03:20:03.838Z,7.94
2023-05-02T03:22:03.837Z,7.78
2023-05-02T03:23:03.848Z,7.94
2023-05-02T03:24:03.874Z,7.78
2023-05-02T03:26:03.834Z,7.94
2023-05-02T03:27:03.825Z,8.11
2023-05-02T03:28:03.833Z,7.78
2023-05-02T03:29:03.842Z,7.67
2023-05-02T03:30:03.846Z,7.78
2023-05-02T03:31:03.927Z,7.78
2023-05-02T03:32:03.939Z,7.94
2023-05-02T03:33:04.083Z,7.94
2023-05-02T03:34:03.838Z,7.94
2023-05-02T03:35:03.842Z,7.78
2023-05-02T03:36:03.858Z,7.78
2023-05-02T03:38:03.843Z,7.78
2023-05-02T03:39:03.854Z,8.11
2023-05-02T03:40:03.884Z,7.94
2023-05-02T03:41:03.858Z,7.94
2023-05-02T03:42:03.850Z,7.94
2023-05-02T03:43:03.849Z,7.94
2023-05-02T03:44:03.871Z,7.94
2023-05-02T03:45:03.832Z,7.94
2023-05-02T03:46:03.865Z,8.11
2023-05-02T03:47:03.911Z,8.11
2023-05-02T03:48:03.902Z,7.94
2023-05-02T03:49:03.930Z,7.94
2023-05-02T03:51:03.862Z,7.78
2023-05-02T03:52:03.838Z,7.94
2023-05-02T03:53:03.900Z,7.94
2023-05-02T03:54:03.864Z,7.94
2023-05-02T03:55:03.842Z,7.78
2023-05-02T03:56:03.875Z,7.94
2023-05-02T03:58:03.859Z,7.94
2023-05-02T03:59:03.869Z,8.11
2023-05-02T04:01:03.858Z,7.94
2023-05-02T04:03:03.959Z,7.94
2023-05-02T04:04:03.872Z,8.11
2023-05-02T04:05:03.892Z,8.39
2023-05-02T04:07:03.868Z,7.5
2023-05-02T04:08:03.869Z,8.11
2023-05-02T04:10:04.021Z,7.78
2023-05-02T04:11:03.873Z,8.28
2023-05-02T04:13:03.890Z,7.94
2023-05-02T04:15:03.858Z,8.11
2023-05-02T04:17:03.973Z,7.94
2023-05-02T04:18:03.964Z,7.94
2023-05-02T04:20:05.417Z,8.11
2023-05-02T04:22:03.899Z,7.78
2023-05-02T04:23:03.873Z,7.78
2023-05-02T04:25:03.859Z,7.94
2023-05-02T04:26:03.854Z,7.94
2023-05-02T04:27:03.868Z,8.11
2023-05-02T04:28:03.864Z,7.78
2023-05-02T04:29:03.902Z,7.94
2023-05-02T04:31:03.912Z,7.94
2023-05-02T04:32:03.866Z,7.78
2023-05-02T04:33:03.943Z,7.94
2023-05-02T04:34:03.878Z,7.94
2023-05-02T04:35:03.857Z,7.67
2023-05-02T04:36:03.885Z,7.94
2023-05-02T04:37:03.914Z,8.11
2023-05-02T04:39:03.889Z,7.94
2023-05-02T04:41:08.560Z,7.78
2023-05-02T04:42:03.918Z,7.5
2023-05-02T04:44:03.881Z,7.94
2023-05-02T04:46:03.922Z,8.11
2023-05-02T04:47:03.881Z,7.94
2023-05-02T04:48:03.907Z,7.94
2023-05-02T04:49:03.882Z,7.94
2023-05-02T04:51:03.888Z,7.94
2023-05-02T04:52:03.878Z,7.94
2023-05-02T04:53:03.913Z,7.94
2023-05-02T04:55:03.887Z,7.78
2023-05-02T04:57:03.893Z,7.94
2023-05-02T04:59:03.880Z,7.94
2023-05-02T05:00:03.985Z,7.78
2023-05-02T05:01:03.884Z,7.78
2023-05-02T05:02:03.940Z,7.78
2023-05-02T05:04:03.977Z,7.78
2023-05-02T05:05:03.916Z,7.78
2023-05-02T05:06:03.921Z,7.5
2023-05-02T05:07:03.899Z,7.67
2023-05-02T05:09:03.915Z,7.78
2023-05-02T05:10:03.878Z,7.94
2023-05-02T05:11:03.887Z,7.78
2023-05-02T05:12:03.909Z,7.94
2023-05-02T05:14:03.906Z,7.78
2023-05-02T05:15:03.895Z,7.67
2023-05-02T05:16:03.927Z,7.94
2023-05-02T05:18:03.929Z,7.94
2023-05-02T05:19:03.895Z,7.94
2023-05-02T05:20:03.876Z,7.78
2023-05-02T05:21:03.888Z,7.94
2023-05-02T05:22:03.902Z,7.94
2023-05-02T05:23:03.903Z,7.67
2023-05-02T05:24:03.897Z,7.78
2023-05-02T05:25:03.952Z,7.94
2023-05-02T05:27:03.902Z,7.78
2023-05-02T05:29:03.897Z,7.78
2023-05-02T05:30:03.966Z,7.78
2023-05-02T05:31:03.954Z,8.28
2023-05-02T05:32:03.979Z,7.94
2023-05-02T05:33:03.953Z,7.94
2023-05-02T05:34:03.945Z,8.28
2023-05-02T05:36:03.932Z,8.11
2023-05-02T05:37:03.911Z,8.11
2023-05-02T05:38:03.908Z,8.11
2023-05-02T05:39:03.948Z,8.11
2023-05-02T05:41:04.026Z,8.11
2023-05-02T05:43:03.909Z,7.94
2023-05-02T05:44:03.902Z,7.5
2023-05-02T05:45:03.896Z,7.78
2023-05-02T05:46:03.908Z,8.11
2023-05-02T05:47:03.999Z,7.94
2023-05-02T05:48:03.968Z,8.11
2023-05-02T05:49:03.898Z,8.11
2023-05-02T05:50:03.996Z,8.39
2023-05-02T05:51:03.938Z,8.11
2023-05-02T05:52:03.921Z,8.11
2023-05-02T05:53:03.928Z,8.28
2023-05-02T05:55:03.911Z,8.39
2023-05-02T05:56:03.925Z,8.39
2023-05-02T05:57:03.952Z,8.11
2023-05-02T05:58:03.912Z,8.39
2023-05-02T05:59:03.923Z,8.39
2023-05-02T06:01:03.918Z,8.39
2023-05-02T06:02:03.991Z,8.39
2023-05-02T06:03:04.386Z,8.39
2023-05-02T06:04:03.990Z,8.39
2023-05-02T06:05:04.087Z,8.11
2023-05-02T06:07:03.919Z,8.11
2023-05-02T06:08:03.940Z,8.39
2023-05-02T06:09:03.929Z,8.39
2023-05-02T06:10:03.917Z,8.5
2023-05-02T06:11:03.929Z,8.39
2023-05-02T06:12:03.907Z,8.39
2023-05-02T06:13:03.955Z,8.39
2023-05-02T06:14:03.919Z,8.5
2023-05-02T06:15:03.935Z,8.39
2023-05-02T06:17:03.932Z,8.39
2023-05-02T06:19:03.922Z,8.39
2023-05-02T06:20:03.926Z,8.39
2023-05-02T06:21:03.932Z,8.11
2023-05-02T06:23:03.921Z,8.11
2023-05-02T06:24:03.923Z,8.28
2023-05-02T06:25:03.929Z,8.39
2023-05-02T06:26:03.942Z,8.39
2023-05-02T06:27:03.929Z,8.28
2023-05-02T06:28:03.946Z,8.39
2023-05-02T06:29:03.969Z,8.39
2023-05-02T06:30:04.132Z,8.39
2023-05-02T06:31:04.081Z,8.5
2023-05-02T06:33:04.000Z,8.39
2023-05-02T06:34:03.925Z,8.61
2023-05-02T06:35:03.925Z,8.61
2023-05-02T06:36:03.935Z,8.78
2023-05-02T06:37:03.918Z,8.94
2023-05-02T06:38:03.941Z,8.78
2023-05-02T06:40:04.170Z,8.61
2023-05-02T06:41:03.923Z,8.5
2023-05-02T06:42:03.956Z,8.5
2023-05-02T06:43:03.971Z,8.61
2023-05-02T06:44:03.940Z,8.61
2023-05-02T06:45:03.948Z,8.5
2023-05-02T06:47:03.985Z,8.61
2023-05-02T06:48:03.963Z,9.06
2023-05-02T06:49:03.924Z,9.22
2023-05-02T06:51:03.943Z,8.94
2023-05-02T06:53:03.944Z,9.22
2023-05-02T06:55:03.917Z,9.06
2023-05-02T06:56:03.935Z,8.94
2023-05-02T06:57:03.947Z,8.78
2023-05-02T06:58:03.924Z,9.22
2023-05-02T06:59:03.934Z,8.78
2023-05-02T07:01:04.068Z,9.06
2023-05-02T07:02:05.472Z,8.94
2023-05-02T07:03:03.945Z,9.06
2023-05-02T07:04:03.999Z,9.22
2023-05-02T07:05:03.950Z,9.06
2023-05-02T07:07:03.941Z,9.06
2023-05-02T07:08:03.983Z,9.67
2023-05-02T07:10:03.936Z,9.67
2023-05-02T07:11:03.944Z,9.67
2023-05-02T07:12:06.138Z,9.67
2023-05-02T07:14:03.942Z,10.11
2023-05-02T07:16:04.007Z,10.11
2023-05-02T07:17:04.002Z,10.11
2023-05-02T07:19:03.948Z,9.78
2023-05-02T07:20:04.198Z,9.94
2023-05-02T07:21:03.945Z,10.11
2023-05-02T07:22:03.947Z,9.67
2023-05-02T07:24:03.952Z,10.11
2023-05-02T07:25:03.936Z,10.11
2023-05-02T07:26:06.190Z,10.22
2023-05-02T07:27:03.947Z,10.39
2023-05-02T07:28:03.958Z,10.22
2023-05-02T07:30:04.109Z,10.56
2023-05-02T07:31:03.959Z,10.11
2023-05-02T07:32:03.959Z,10.22
2023-05-02T07:33:03.989Z,10.22
2023-05-02T07:35:03.942Z,10.22
2023-05-02T07:36:03.955Z,10.56
2023-05-02T07:37:03.972Z,10.56
2023-05-02T07:38:03.970Z,10.56
2023-05-02T07:39:03.977Z,10.39
2023-05-02T07:41:03.951Z,10.22
2023-05-02T07:42:03.948Z,10.39
2023-05-02T07:43:03.957Z,10.56
2023-05-02T07:44:03.972Z,10.56
2023-05-02T07:46:04.025Z,10.39
2023-05-02T07:47:03.951Z,10.39
2023-05-02T07:48:04.015Z,10.56
2023-05-02T07:49:03.997Z,10.39
2023-05-02T07:51:03.962Z,9.67
2023-05-02T07:52:03.964Z,9.67
2023-05-02T07:53:03.979Z,9.67
2023-05-02T07:55:04.031Z,9.67
2023-05-02T07:56:03.977Z,10.11
2023-05-02T07:58:03.971Z,10.39
2023-05-02T07:59:05.565Z,10.22
2023-05-02T08:00:04.160Z,10.11
2023-05-02T08:01:03.984Z,10.39
2023-05-02T08:02:03.968Z,10.39
2023-05-02T08:04:04.115Z,10.22
2023-05-02T08:05:04.067Z,10.22
2023-05-02T08:07:03.964Z,10.56
2023-05-02T08:08:03.982Z,10.56
2023-05-02T08:09:03.982Z,10.22
2023-05-02T08:11:04.043Z,10.39
2023-05-02T08:12:04.001Z,10.22
2023-05-02T08:14:03.981Z,10.11
2023-05-02T08:15:03.987Z,11
2023-05-02T08:16:04.041Z,10.83
2023-05-02T08:17:03.978Z,10.83
2023-05-02T08:18:04.065Z,10.83
2023-05-02T08:20:03.974Z,11.11
2023-05-02T08:21:04.015Z,11
2023-05-02T08:23:03.986Z,10.11
2023-05-02T08:24:03.980Z,10.39
2023-05-02T08:26:03.991Z,10.56
2023-05-02T08:27:04.003Z,11.28
2023-05-02T08:28:03.986Z,11.44
2023-05-02T08:29:04.002Z,11.83
2023-05-02T08:30:04.121Z,11
2023-05-02T08:31:03.993Z,11.61
2023-05-02T08:33:04.040Z,10.67
2023-05-02T08:35:04.019Z,10.83
2023-05-02T08:36:03.991Z,10.67
2023-05-02T08:37:04.027Z,11.44
2023-05-02T08:39:04.002Z,11.44
2023-05-02T08:40:04.242Z,11.44
2023-05-02T08:41:03.995Z,11.11
2023-05-02T08:42:03.986Z,11.44
2023-05-02T08:43:04.000Z,11.44
2023-05-02T08:44:03.994Z,12.44
2023-05-02T08:46:03.998Z,11.83
2023-05-02T08:47:04.016Z,11.72
2023-05-02T08:48:04.044Z,11
2023-05-02T08:49:04.006Z,10.56
2023-05-02T08:51:03.990Z,10.56
2023-05-02T08:52:04.004Z,10.39
2023-05-02T08:53:04.043Z,10.83
2023-05-02T08:55:04.304Z,11.11
2023-05-02T08:56:04.009Z,11.44
2023-05-02T08:57:03.994Z,11
2023-05-02T08:58:03.995Z,11
2023-05-02T08:59:03.994Z,11
2023-05-02T09:00:04.006Z,11
2023-05-02T09:01:04.012Z,11.28
2023-05-02T09:03:04.037Z,11.28
2023-05-02T09:04:04.080Z,10.56
2023-05-02T09:06:04.047Z,10.56
2023-05-02T09:07:04.004Z,11.44
2023-05-02T09:08:04.010Z,11.28
2023-05-02T09:09:04.058Z,11.61
2023-05-02T09:11:04.028Z,11
2023-05-02T09:13:04.024Z,11.44
2023-05-02T09:15:04.022Z,11.11
2023-05-02T09:16:04.019Z,11.28
2023-05-02T09:17:04.183Z,11.11
2023-05-02T09:19:04.023Z,10.56
2023-05-02T09:20:04.029Z,10.22
2023-05-02T09:21:04.022Z,10.22
2023-05-02T09:22:04.036Z,9.67
2023-05-02T09:23:04.032Z,9.78
2023-05-02T09:25:04.062Z,9.72
2023-05-02T09:27:04.045Z,9.89
2023-05-02T09:28:04.018Z,10.17
2023-05-02T09:29:04.018Z,10
2023-05-02T09:31:04.064Z,10.17
2023-05-02T09:32:04.095Z,10.33
2023-05-02T09:34:04.025Z,10.56
2023-05-02T09:35:04.035Z,10.44
2023-05-02T09:36:04.078Z,10.39
2023-05-02T09:38:04.023Z,10.72
2023-05-02T09:39:04.035Z,10.61
2023-05-02T09:41:04.116Z,10.67
2023-05-02T09:42:04.077Z,10.67
2023-05-02T09:43:04.026Z,10.56
2023-05-02T09:44:04.031Z,10.89
2023-05-02T09:46:04.060Z,11.06
2023-05-02T09:47:04.036Z,10.56
2023-05-02T09:48:04.071Z,10.56
2023-05-02T09:50:04.031Z,10.61
2023-05-02T09:52:04.045Z,10.67
2023-05-02T09:53:04.042Z,11.06
2023-05-02T09:55:04.037Z,10.67
2023-05-02T09:57:04.057Z,11
2023-05-02T09:58:04.044Z,11.11
2023-05-02T09:59:04.040Z,11.11
2023-05-02T10:00:04.024Z,11.11
2023-05-02T10:01:04.069Z,10.67
2023-05-02T10:02:04.082Z,11.11
2023-05-02T10:03:04.091Z,11.17
2023-05-02T10:05:04.047Z,11.33
2023-05-02T10:06:04.082Z,11.83
2023-05-02T10:07:04.053Z,11.83
2023-05-02T10:08:04.091Z,11.17
2023-05-02T10:09:04.035Z,11.44
2023-05-02T10:10:04.049Z,11.61
2023-05-02T10:11:04.067Z,11.44
2023-05-02T10:12:04.038Z,11.72
2023-05-02T10:13:04.063Z,11.61
2023-05-02T10:15:04.078Z,11.83
2023-05-02T10:16:04.044Z,11.83
2023-05-02T10:18:04.084Z,12.28
2023-05-02T10:19:04.058Z,11.61
2023-05-02T10:20:04.103Z,11.83
2023-05-02T10:22:04.107Z,10.83
2023-05-02T10:23:04.049Z,11.28
2023-05-02T10:24:04.089Z,11.5
2023-05-02T10:25:04.247Z,11.72
2023-05-02T10:26:04.075Z,11.28
2023-05-02T10:27:04.053Z,11.61
2023-05-02T10:28:04.086Z,11.61
2023-05-02T10:29:04.070Z,11.33
2023-05-02T10:30:04.060Z,11.17
2023-05-02T10:31:04.054Z,11.17
2023-05-02T10:32:04.136Z,11.17
2023-05-02T10:33:04.076Z,11.5
2023-05-02T10:35:04.071Z,10.89
2023-05-02T10:36:04.089Z,11.06
2023-05-02T10:38:04.062Z,10.61
2023-05-02T10:39:04.059Z,10.72
2023-05-02T10:40:04.046Z,10.72
2023-05-02T10:41:04.076Z,10.89
2023-05-02T10:42:04.058Z,10.72
2023-05-02T10:44:04.072Z,10.72
2023-05-02T10:45:04.069Z,11.17
2023-05-02T10:46:04.066Z,10.89
2023-05-02T10:47:04.117Z,10.61
2023-05-02T10:48:04.136Z,11.06
2023-05-02T10:49:04.065Z,11.17
2023-05-02T10:50:04.061Z,11.5
2023-05-02T10:51:04.061Z,11.61
2023-05-02T10:52:04.050Z,11.78
2023-05-02T10:53:04.071Z,11.5
2023-05-02T10:54:04.063Z,11.89
2023-05-02T10:55:04.054Z,11.61
2023-05-02T10:56:04.049Z,11.89
2023-05-02T10:57:04.069Z,11.61
2023-05-02T10:58:04.054Z,12
2023-05-02T10:59:04.069Z,12.33
2023-05-02T11:00:04.056Z,12.78
2023-05-02T11:01:04.098Z,12.94
2023-05-02T11:02:06.294Z,12.72
2023-05-02T11:03:04.135Z,13.11
2023-05-02T11:05:05.070Z,13.94
2023-05-02T11:06:04.107Z,13.83
2023-05-02T11:08:04.068Z,14.06
2023-05-02T11:09:04.064Z,13.72
2023-05-02T11:10:04.076Z,14.06
2023-05-02T11:11:04.060Z,14.39
2023-05-02T11:12:04.110Z,14.61
2023-05-02T11:14:04.063Z,14.06
2023-05-02T11:15:04.070Z,14.06
2023-05-02T11:16:04.149Z,14
2023-05-02T11:17:04.139Z,14.56
2023-05-02T11:18:04.124Z,14.39
2023-05-02T11:19:04.081Z,14
2023-05-02T11:21:04.067Z,13.83
2023-05-02T11:22:04.064Z,14.22
2023-05-02T11:23:04.081Z,14.28
2023-05-02T11:24:04.101Z,14.28
2023-05-02T11:26:04.083Z,14.44
2023-05-02T11:27:04.068Z,13.83
2023-05-02T11:28:04.076Z,13.83
2023-05-02T11:29:04.067Z,13.83
2023-05-02T11:30:04.066Z,13.39
2023-05-02T11:31:04.073Z,13.83
2023-05-02T11:32:04.091Z,14.11
2023-05-02T11:33:04.178Z,13.39
2023-05-02T11:35:04.081Z,13.56
2023-05-02T11:37:04.077Z,13.39
2023-05-02T11:38:04.085Z,12.78
2023-05-02T11:39:04.068Z,12.61
2023-05-02T11:40:04.075Z,12.33
2023-05-02T11:41:04.076Z,12.78
2023-05-02T11:42:04.076Z,12.5
2023-05-02T11:43:04.079Z,12.17
2023-05-02T11:44:04.151Z,12.5
2023-05-02T11:45:04.346Z,12.5
2023-05-02T11:46:04.092Z,12.5
2023-05-02T11:47:04.089Z,12.33
2023-05-02T11:48:04.105Z,12.33
2023-05-02T11:49:05.162Z,12.5
2023-05-02T11:50:04.080Z,12.5
2023-05-02T11:51:04.068Z,12.5
2023-05-02T11:52:04.087Z,12.5
2023-05-02T11:53:04.084Z,12
2023-05-02T11:55:04.272Z,12
2023-05-02T11:56:04.127Z,12.33
2023-05-02T11:58:04.078Z,12.78
2023-05-02T11:59:04.101Z,12.5
2023-05-02T12:00:04.087Z,12.33
2023-05-02T12:01:04.085Z,11.78
2023-05-02T12:03:04.216Z,12.61
2023-05-02T12:04:04.082Z,13.67
2023-05-02T12:05:04.424Z,12.61
2023-05-02T12:06:04.183Z,12.17
2023-05-02T12:07:04.130Z,12
2023-05-02T12:09:04.089Z,12.17
2023-05-02T12:10:04.094Z,12.5
2023-05-02T12:11:04.116Z,12.17
2023-05-02T12:12:04.105Z,12.33
2023-05-02T12:13:04.086Z,12.5
2023-05-02T12:14:04.094Z,11.89
2023-05-02T12:15:04.179Z,11.89
2023-05-02T12:16:04.133Z,12.5
2023-05-02T12:17:04.101Z,12.33
2023-05-02T12:18:04.141Z,12.5
2023-05-02T12:19:04.097Z,12.94
2023-05-02T12:20:04.092Z,13.39
2023-05-02T12:21:04.122Z,12.78
2023-05-02T12:22:04.089Z,12.94
2023-05-02T12:23:04.104Z,12.61
2023-05-02T12:24:04.104Z,12.78
2023-05-02T12:25:04.684Z,13.11
2023-05-02T12:27:04.123Z,12.5
2023-05-02T12:28:04.102Z,12.78
2023-05-02T12:29:04.119Z,12.78
2023-05-02T12:31:04.144Z,13.22
2023-05-02T12:33:04.134Z,12.78
2023-05-02T12:35:04.173Z,13.22
2023-05-02T12:36:04.105Z,13.56
2023-05-02T12:37:04.150Z,13.67
2023-05-02T12:39:04.132Z,13.11
2023-05-02T12:41:04.105Z,13.22
2023-05-02T12:42:04.109Z,13.22
2023-05-02T12:43:04.171Z,13.39
2023-05-02T12:44:04.183Z,13.22
2023-05-02T12:45:04.103Z,12.78
2023-05-02T12:47:04.130Z,12.5
2023-05-02T12:48:04.125Z,12.61
2023-05-02T12:49:04.140Z,12.17
2023-05-02T12:51:04.103Z,12.94
2023-05-02T12:52:04.105Z,12.94
2023-05-02T12:53:04.122Z,12.5
2023-05-02T12:54:04.102Z,12.17
2023-05-02T12:55:04.119Z,12.33
2023-05-02T12:56:04.106Z,12.17
2023-05-02T12:57:04.097Z,11.89
2023-05-02T12:58:04.107Z,11.78
2023-05-02T12:59:04.110Z,12
2023-05-02T13:00:04.321Z,12
2023-05-02T13:02:04.104Z,12.5
2023-05-02T13:03:04.261Z,12.94
2023-05-02T13:04:04.214Z,12.61
2023-05-02T13:05:04.109Z,12.78
2023-05-02T13:06:04.187Z,13.11
2023-05-02T13:07:04.091Z,12.33
2023-05-02T13:08:04.111Z,12.33
2023-05-02T13:09:04.141Z,12
2023-05-02T13:11:04.115Z,11.89
2023-05-02T13:12:04.112Z,12
2023-05-02T13:13:04.097Z,12.5
2023-05-02T13:14:04.108Z,12.33
2023-05-02T13:15:04.243Z,12.17
2023-05-02T13:17:04.373Z,12.33
2023-05-02T13:18:04.213Z,12
2023-05-02T13:19:04.112Z,11.89
2023-05-02T13:21:04.108Z,11.89
2023-05-02T13:23:04.104Z,11.61
2023-05-02T13:24:04.153Z,11.5
2023-05-02T13:25:04.188Z,11.78
2023-05-02T13:27:04.103Z,11.61
2023-05-02T13:28:04.101Z,11.78
2023-05-02T13:30:06.622Z,11.33
2023-05-02T13:32:04.211Z,11.89
2023-05-02T13:34:04.105Z,12
2023-05-02T13:35:04.152Z,12
2023-05-02T13:36:04.143Z,11.89
2023-05-02T13:37:04.109Z,12
2023-05-02T13:38:04.145Z,11.33
2023-05-02T13:39:04.111Z,11.5
2023-05-02T13:40:04.293Z,11.5
2023-05-02T13:41:04.185Z,11.89
2023-05-02T13:43:04.131Z,11.61
2023-05-02T13:44:04.117Z,11.5
2023-05-02T13:45:04.144Z,11.5
2023-05-02T13:47:04.178Z,11.61
2023-05-02T13:49:04.115Z,11.89
2023-05-02T13:50:04.353Z,11.33
2023-05-02T13:51:04.164Z,11.17
2023-05-02T13:53:04.153Z,10.89
2023-05-02T13:54:04.183Z,10.72
2023-05-02T13:55:04.165Z,10.89
2023-05-02T13:56:04.125Z,10.89
2023-05-02T13:57:04.141Z,11.17
2023-05-02T13:59:05.531Z,10.89
2023-05-02T14:00:04.345Z,10.89
2023-05-02T14:02:04.166Z,10.72
2023-05-02T14:03:04.249Z,10.61
2023-05-02T14:04:04.399Z,11.06
2023-05-02T14:06:04.228Z,11.06
2023-05-02T14:07:04.201Z,11.17
2023-05-02T14:08:04.136Z,11.06
2023-05-02T14:09:04.227Z,11.17
2023-05-02T14:10:04.474Z,11.17
2023-05-02T14:12:04.144Z,11.06
2023-05-02T14:13:04.303Z,11.17
2023-05-02T14:15:04.129Z,10.72
2023-05-02T14:16:04.146Z,10.72
2023-05-02T14:17:04.154Z,11.17
2023-05-02T14:18:04.195Z,11.06
2023-05-02T14:19:04.139Z,11.17
2023-05-02T14:20:04.352Z,10.89
2023-05-02T14:21:04.207Z,10.89
2023-05-02T14:23:05.437Z,10.72
2023-05-02T14:24:04.148Z,10.89
2023-05-02T14:25:04.143Z,11.06
2023-05-02T14:27:04.206Z,11.33
2023-05-02T14:29:04.343Z,11.17
2023-05-02T14:31:04.204Z,11.17
2023-05-02T14:32:04.158Z,11.17
2023-05-02T14:33:04.185Z,11.17
2023-05-02T14:35:04.144Z,11.5
2023-05-02T14:36:04.138Z,11.5
2023-05-02T14:37:04.158Z,11.5
2023-05-02T14:38:04.157Z,11.61
2023-05-02T14:39:04.143Z,11.61
2023-05-02T14:41:04.157Z,11.06
2023-05-02T14:42:04.166Z,11.17
2023-05-02T14:44:04.145Z,11.33
2023-05-02T14:45:04.176Z,11.5
2023-05-02T14:46:04.165Z,11.33
2023-05-02T14:47:04.204Z,11.5
2023-05-02T14:48:04.167Z,11.33
2023-05-02T14:49:04.163Z,11.17
2023-05-02T14:50:04.331Z,11.17
2023-05-02T14:51:04.176Z,11.33
2023-05-02T14:52:04.148Z,11.33
2023-05-02T14:53:04.166Z,11.17
2023-05-02T14:54:04.154Z,11.17
2023-05-02T14:55:04.189Z,11.06
2023-05-02T14:56:04.163Z,11.06
2023-05-02T14:57:04.257Z,11.17
2023-05-02T14:58:04.162Z,11.17
2023-05-02T14:59:04.168Z,10.89
2023-05-02T15:00:04.514Z,10.89
2023-05-02T15:01:04.205Z,11.06
2023-05-02T15:03:06.668Z,10.89
2023-05-02T15:04:06.978Z,11.17
2023-05-02T15:05:04.180Z,11.17
2023-05-02T15:07:04.254Z,11.17
2023-05-02T15:08:04.166Z,11.17
2023-05-02T15:09:04.157Z,11.17
2023-05-02T15:10:04.369Z,10.61
2023-05-02T15:11:04.160Z,10.89
2023-05-02T15:12:04.163Z,11.06
2023-05-02T15:13:04.195Z,11.17
2023-05-02T15:14:04.154Z,11.06
2023-05-02T15:15:04.169Z,11.17
2023-05-02T15:16:04.183Z,11.17
2023-05-02T15:17:04.297Z,11.17
2023-05-02T15:19:04.167Z,10.89
2023-05-02T15:20:04.325Z,10.72
2023-05-02T15:21:04.198Z,10.89
2023-05-02T15:23:04.164Z,10.72
2023-05-02T15:24:04.181Z,10.72
2023-05-02T15:25:05.249Z,10.44
2023-05-02T15:27:04.190Z,10.72
2023-05-02T15:28:04.186Z,10.89
2023-05-02T15:30:04.373Z,10.89
2023-05-02T15:31:04.186Z,11.06
2023-05-02T15:32:04.263Z,10.72
2023-05-02T15:33:04.225Z,10.89
2023-05-02T15:34:04.169Z,11.06
2023-05-02T15:35:04.196Z,11.33
2023-05-02T15:37:04.184Z,11.06
2023-05-02T15:38:04.191Z,10.72
2023-05-02T15:39:04.165Z,10.72
2023-05-02T15:40:04.480Z,10.72
2023-05-02T15:41:04.184Z,10.72
2023-05-02T15:42:04.188Z,10.61
2023-05-02T15:43:04.170Z,10.61
2023-05-02T15:44:04.219Z,10.44
2023-05-02T15:45:04.190Z,10.61
2023-05-02T15:47:04.191Z,10.61
2023-05-02T15:48:04.268Z,10.44
2023-05-02T15:49:04.212Z,10.61
2023-05-02T15:51:04.206Z,10.44
2023-05-02T15:52:04.170Z,10.44
2023-05-02T15:53:04.199Z,10.33
2023-05-02T15:54:04.189Z,10.44
2023-05-02T15:56:04.181Z,9.89
2023-05-02T15:57:04.212Z,10.33
2023-05-02T15:59:04.173Z,10.33
2023-05-02T16:00:04.407Z,10.17
2023-05-02T16:01:04.245Z,10.17
2023-05-02T16:02:04.223Z,10.33
2023-05-02T16:03:04.271Z,10.33
2023-05-02T16:04:04.215Z,10.33
2023-05-02T16:05:04.233Z,9.89
2023-05-02T16:06:04.274Z,10
2023-05-02T16:07:04.205Z,10
2023-05-02T16:09:04.192Z,9.89
2023-05-02T16:11:04.197Z,9.89
2023-05-02T16:12:04.182Z,9.28
2023-05-02T16:13:04.177Z,9.72
2023-05-02T16:14:04.191Z,9.56
2023-05-02T16:16:04.233Z,9.72
2023-05-02T16:17:04.189Z,9.44
2023-05-02T16:18:04.217Z,9.56
2023-05-02T16:19:04.173Z,9.72
2023-05-02T16:20:04.455Z,9.72
2023-05-02T16:21:04.212Z,10
2023-05-02T16:22:04.176Z,9.89
2023-05-02T16:23:04.217Z,10
2023-05-02T16:24:04.181Z,9.72